»·PEaware :: N450HB KCLM-KFHR

N450HB :: KCLM-KFHR

FLIGHT INFORMATION

Flight Status: Arrived
Operator: Privately registered:
United States
More flights under this callsign
Pilot: Mark P. (13279)
Aircraft: Unknown
(T210)
More flights by this aircraft type
Origin: KCLM Fairchild Intl
United States
Destination: KFHR Friday Harbor
United States
More flights between these airports :: More routes between these airports
Route: +WATTR6 WATTR FHR
File this flight plan on PilotEdge
Remarks: HOIFR2a
Altitude:
(Current/Filed)
5,400ft
Speed:
(Current/Filed)
165kts
Departed: 12-Jan-18 05:21 PM
Arrived: 12-Jan-18 05:56 PM
Distance/Time
Traveled:
31nm/0:35
Distance/Time
To Go:
Arrived

Flight Plot

Page will automatically refresh every two minutes.

Flight plan parsing failed; only flown route is shown


Map Options




Map Legend


Flown Route
Filed Route
Departure Airport
Arrival Airport
Navaid (VOR, NDB)
Fix

Horizontal Profiles

Position Reports

Time Latitude Longitude Heading Altitude Ground
Speed
12-Jan-18 17:00 48.117081 -123.497987 242 295ft 0kts
12-Jan-18 17:01 48.117079 -123.497991 242 295ft 0kts
12-Jan-18 17:02 48.117089 -123.498056 323 295ft 0kts
12-Jan-18 17:03 48.117089 -123.498056 323 295ft 0kts
12-Jan-18 17:04 48.117089 -123.498056 323 295ft 0kts
12-Jan-18 17:05 48.117089 -123.498056 323 295ft 0kts
12-Jan-18 17:06 48.117089 -123.498056 323 295ft 0kts
12-Jan-18 17:07 48.117089 -123.498056 323 295ft 0kts
12-Jan-18 17:08 48.117089 -123.498056 323 295ft 0kts
12-Jan-18 17:09 48.117089 -123.498056 323 295ft 0kts
12-Jan-18 17:10 48.117089 -123.498056 323 295ft 0kts
12-Jan-18 17:11 48.117089 -123.498056 323 295ft 0kts
12-Jan-18 17:12 48.117089 -123.498056 323 295ft 0kts
12-Jan-18 17:13 48.117089 -123.498056 323 295ft 0kts
12-Jan-18 17:14 48.117089 -123.498056 323 295ft 0kts
12-Jan-18 17:15 48.117089 -123.498056 323 295ft 0kts
12-Jan-18 17:16 48.117089 -123.498056 323 295ft 0kts
12-Jan-18 17:17 48.117089 -123.498056 323 295ft 0kts
12-Jan-18 17:18 48.117089 -123.498056 323 295ft 0kts
12-Jan-18 17:19 48.117089 -123.498056 323 295ft 0kts
12-Jan-18 17:20 48.117089 -123.498056 323 295ft 0kts
12-Jan-18 17:21 48.117286 -123.498258 358 295ft 4kts
12-Jan-18 17:22 48.118160 -123.501465 284 295ft 12kts
12-Jan-18 17:23 48.118979 -123.506118 284 295ft 12kts
12-Jan-18 17:24 48.119873 -123.511221 283 295ft 12kts
12-Jan-18 17:25 48.120053 -123.511799 320 295ft 0kts
12-Jan-18 17:26 48.120076 -123.511816 342 295ft 1kts
12-Jan-18 17:27 48.119336 -123.501902 110 323ft 81kts
12-Jan-18 17:28 48.122249 -123.467312 60 928ft 106kts
12-Jan-18 17:29 48.137028 -123.427126 63 1662ft 112kts
12-Jan-18 17:30 48.138401 -123.380292 90 2429ft 114kts
12-Jan-18 17:31 48.139245 -123.334110 90 3182ft 115kts
12-Jan-18 17:32 48.139187 -123.285868 90 3974ft 116kts
12-Jan-18 17:33 48.136740 -123.237690 90 4750ft 119kts
12-Jan-18 17:34 48.133814 -123.183199 89 4994ft 144kts
12-Jan-18 17:35 48.133262 -123.121132 85 4992ft 153kts
12-Jan-18 17:36 48.135519 -123.058976 80 5001ft 147kts
12-Jan-18 17:37 48.138879 -122.999005 83 5004ft 143kts
12-Jan-18 17:38 48.142055 -122.939974 83 5014ft 145kts
12-Jan-18 17:39 48.169176 -122.910178 338 5021ft 158kts
12-Jan-18 17:40 48.209242 -122.936428 335 5017ft 157kts
12-Jan-18 17:41 48.248789 -122.962748 346 4995ft 142kts
12-Jan-18 17:42 48.287049 -122.971864 353 4995ft 140kts
12-Jan-18 17:43 48.325399 -122.980933 353 4994ft 139kts
12-Jan-18 17:44 48.363717 -122.989288 353 4988ft 138kts
12-Jan-18 17:45 48.401831 -122.996759 351 4982ft 138kts
12-Jan-18 17:46 48.439960 -123.005249 351 4977ft 139kts
12-Jan-18 17:47 48.478329 -123.013045 351 4973ft 139kts
12-Jan-18 17:48 48.516361 -123.022663 356 4971ft 138kts
12-Jan-18 17:49 48.540999 -122.996802 113 4969ft 151kts
12-Jan-18 17:50 48.506434 -122.994088 212 4968ft 153kts
12-Jan-18 17:51 48.467355 -123.019204 182 4969ft 154kts
12-Jan-18 17:52 48.424610 -123.017216 178 4264ft 141kts
12-Jan-18 17:53 48.394536 -122.995610 126 3259ft 124kts
12-Jan-18 17:54 48.373177 -122.956109 142 2323ft 119kts
12-Jan-18 17:55 48.359730 -122.983810 310 2292ft 122kts
12-Jan-18 17:56 48.381518 -123.018398 340 2276ft 99kts
12-Jan-18 17:57 48.409121 -123.022255 0 1842ft 99kts
12-Jan-18 17:58 48.436625 -123.021861 359 1464ft 99kts
12-Jan-18 17:59 48.464159 -123.022061 359 1064ft 99kts
12-Jan-18 18:00 48.490532 -123.022239 359 648ft 81kts
12-Jan-18 18:01 48.512314 -123.023556 351 297ft 77kts
12-Jan-18 18:02 48.525889 -123.024646 355 117ft 15kts
12-Jan-18 18:03 48.526315 -123.026145 93 117ft 3kts
12-Jan-18 18:04 48.526315 -123.026112 79 117ft 0kts
12-Jan-18 18:05 48.526315 -123.026112 79 117ft 0kts
12-Jan-18 18:06 48.526315 -123.026112 79 117ft 0kts
12-Jan-18 18:07 48.526315 -123.026112 79 117ft 0kts
12-Jan-18 18:08 48.526315 -123.026112 79 117ft 0kts
12-Jan-18 18:09 48.526315 -123.026112 79 117ft 0kts
12-Jan-18 18:10 48.526315 -123.026112 79 117ft 0kts
12-Jan-18 18:11 48.526315 -123.026112 79 117ft 0kts
12-Jan-18 18:12 48.526315 -123.026112 79 117ft 0kts
12-Jan-18 18:13 48.526315 -123.026112 79 117ft 0kts
12-Jan-18 18:14 48.526315 -123.026112 79 117ft 0kts
12-Jan-18 18:15 48.526315 -123.026112 79 117ft 0kts
12-Jan-18 18:16 48.526315 -123.026112 79 117ft 0kts
12-Jan-18 18:17 48.526315 -123.026112 79 117ft 0kts

Navigation Log

Ident Type
Flight plan parsing failed, navigation log unavailable